createdAt,value
2023-01-08T00:00:12.827Z,99731.44
2023-01-08T00:05:14.373Z,99745.91
2023-01-08T00:10:15.968Z,99738.22
2023-01-08T00:15:17.575Z,99738.75
2023-01-08T00:20:19.136Z,99732.28
2023-01-08T00:25:20.849Z,99742.28
2023-01-08T00:30:22.448Z,99730.13
2023-01-08T00:35:24.108Z,99727.44
2023-01-08T00:40:25.838Z,99715.16
2023-01-08T00:45:27.403Z,99704.63
2023-01-08T00:50:28.984Z,99709.72
2023-01-08T00:55:30.833Z,99692.06
2023-01-08T01:00:32.599Z,99696.84
2023-01-08T01:05:34.180Z,99675.25
2023-01-08T01:10:35.795Z,99670.91
2023-01-08T01:15:37.367Z,99666.06
2023-01-08T01:20:39.036Z,99649.03
2023-01-08T01:25:40.629Z,99653.91
2023-01-08T01:30:42.269Z,99662.91
2023-01-08T01:35:43.948Z,99672.41
2023-01-08T01:40:45.583Z,99672.97
2023-01-08T01:45:47.343Z,99671.16
2023-01-08T01:50:51.950Z,99668.22
2023-01-08T01:55:53.655Z,99656.00
2023-01-08T02:00:57.391Z,99662.91
2023-01-08T02:06:29.838Z,99667.03
2023-01-08T02:11:39.349Z,99650.41
2023-01-08T02:16:47.503Z,99635.44
2023-01-08T02:22:12.428Z,99622.72
2023-01-08T02:27:15.120Z,99616.59
2023-01-08T02:32:16.769Z,99613.56
2023-01-08T02:37:18.454Z,99609.44
2023-01-08T02:42:44.688Z,99620.50
2023-01-08T02:47:53.837Z,99622.28
2023-01-08T02:52:55.357Z,99622.78
2023-01-08T02:57:57.895Z,99620.63
2023-01-08T03:03:10.861Z,99616.16
2023-01-08T03:08:12.638Z,99617.53
2023-01-08T03:13:22.978Z,99614.88
2023-01-08T03:18:30.156Z,99610.53
2023-01-08T03:23:34.722Z,99611.19
2023-01-08T03:28:43.757Z,99610.91
2023-01-08T03:33:46.745Z,99611.13
2023-01-08T03:38:53.471Z,99602.44
2023-01-08T03:43:55.718Z,99592.69
2023-01-08T03:48:58.300Z,99585.84
2023-01-08T03:53:59.996Z,99567.94
2023-01-08T03:59:01.579Z,99569.38
2023-01-08T04:04:03.252Z,99562.63
2023-01-08T04:09:05.128Z,99544.47
2023-01-08T04:14:06.725Z,99546.00
2023-01-08T04:19:08.364Z,99534.41
2023-01-08T04:24:12.034Z,99523.38
2023-01-08T04:29:14.332Z,99536.69
2023-01-08T04:34:15.953Z,99546.16
2023-01-08T04:39:17.711Z,99552.84
2023-01-08T04:44:19.319Z,99557.94
2023-01-08T04:49:20.983Z,99546.91
2023-01-08T04:54:22.580Z,99549.66
2023-01-08T04:59:24.175Z,99544.53
2023-01-08T05:04:25.843Z,99534.28
2023-01-08T05:09:27.440Z,99536.84
2023-01-08T05:14:29.049Z,99545.16
2023-01-08T05:19:30.604Z,99529.56
2023-01-08T05:24:32.163Z,99521.03
2023-01-08T05:29:34.897Z,99529.38
2023-01-08T05:34:36.464Z,99535.31
2023-01-08T05:39:38.292Z,99514.84
2023-01-08T05:44:39.878Z,99522.25
2023-01-08T05:49:41.447Z,99511.50
2023-01-08T05:54:43.049Z,99506.16
2023-01-08T05:59:44.663Z,99502.72
2023-01-08T06:04:46.337Z,99499.91
2023-01-08T06:09:47.937Z,99498.00
2023-01-08T06:14:49.519Z,99495.00
2023-01-08T06:19:51.125Z,99502.13
2023-01-08T06:24:52.907Z,99510.13
2023-01-08T06:29:54.479Z,99507.47
2023-01-08T06:34:56.079Z,99517.34
2023-01-08T06:39:57.666Z,99511.03
2023-01-08T06:44:59.257Z,99513.22
2023-01-08T06:50:01.119Z,99522.44
2023-01-08T06:55:04.848Z,99521.09
2023-01-08T07:00:07.295Z,99518.03
2023-01-08T07:05:09.147Z,99527.94
2023-01-08T07:10:11.167Z,99528.09
2023-01-08T07:15:12.793Z,99526.34
2023-01-08T07:20:14.373Z,99532.22
2023-01-08T07:25:16.150Z,99547.47
2023-01-08T07:30:28.791Z,99535.28
2023-01-08T07:35:31.274Z,99522.84
2023-01-08T07:40:32.937Z,99529.53
2023-01-08T07:45:34.658Z,99530.31
2023-01-08T07:50:37.703Z,99511.41
2023-01-08T07:55:39.375Z,99515.06
2023-01-08T08:00:41.154Z,99518.88
2023-01-08T08:05:42.799Z,99508.66
2023-01-08T08:10:44.897Z,99516.16
2023-01-08T08:15:46.482Z,99512.47
2023-01-08T08:20:51.823Z,99504.41
2023-01-08T08:25:53.570Z,99492.94
2023-01-08T08:30:55.286Z,99505.91
2023-01-08T08:35:56.882Z,99494.50
2023-01-08T08:40:58.681Z,99477.16
2023-01-08T08:46:00.257Z,99467.19
2023-01-08T08:51:01.832Z,99458.88
2023-01-08T08:56:03.577Z,99464.28
2023-01-08T09:01:05.327Z,99462.94
2023-01-08T09:06:07.242Z,99450.31
2023-01-08T09:11:09.960Z,99461.25
2023-01-08T09:16:11.678Z,99458.25
2023-01-08T09:21:13.490Z,99442.66
2023-01-08T09:26:15.054Z,99429.25
2023-01-08T09:31:16.730Z,99415.25
2023-01-08T09:36:18.509Z,99427.44
2023-01-08T09:41:24.368Z,99421.28
2023-01-08T09:46:27.494Z,99425.09
2023-01-08T09:51:34.995Z,99424.63
2023-01-08T09:56:36.953Z,99434.09
2023-01-08T10:01:40.934Z,99422.63
2023-01-08T10:06:54.615Z,99419.47
2023-01-08T10:11:59.683Z,99433.81
2023-01-08T10:17:11.480Z,99429.66
2023-01-08T10:22:17.821Z,99418.13
2023-01-08T10:27:23.907Z,99416.66
2023-01-08T10:32:30.828Z,99412.31
2023-01-08T10:37:39.244Z,99400.94
2023-01-08T10:42:40.913Z,99402.63
2023-01-08T10:47:46.466Z,99381.94
2023-01-08T10:52:57.320Z,99374.44
2023-01-08T10:58:14.205Z,99372.09
2023-01-08T11:03:27.437Z,99356.59
2023-01-08T11:08:29.058Z,99356.44
2023-01-08T11:13:30.748Z,99351.41
2023-01-08T11:18:36.904Z,99357.91
2023-01-08T11:23:38.593Z,99359.25
2023-01-08T11:28:51.497Z,99361.94
2023-01-08T11:33:58.359Z,99367.31
2023-01-08T11:39:00.924Z,99362.75
2023-01-08T11:44:43.999Z,99350.50
2023-01-08T11:50:03.411Z,99339.56
2023-01-08T11:55:24.509Z,99315.50
2023-01-08T12:00:35.355Z,99295.16
2023-01-08T12:05:47.050Z,99289.31
2023-01-08T12:11:07.911Z,99299.00
2023-01-08T12:16:29.201Z,99287.66
2023-01-08T12:21:40.378Z,99284.97
2023-01-08T12:27:02.921Z,99289.50
2023-01-08T12:32:43.616Z,99275.31
2023-01-08T12:38:03.431Z,99285.81
2023-01-08T12:43:12.445Z,99283.16
2023-01-08T12:48:27.879Z,99283.81
2023-01-08T12:53:43.132Z,99286.16
2023-01-08T12:59:04.947Z,99277.47
2023-01-08T13:04:08.540Z,99262.97
2023-01-08T13:09:21.373Z,99269.47
2023-01-08T13:14:23.473Z,99269.28
2023-01-08T13:19:27.318Z,99253.59
2023-01-08T13:24:38.350Z,99262.97
2023-01-08T13:29:42.801Z,99256.13
2023-01-08T13:34:44.453Z,99249.09
2023-01-08T13:39:46.016Z,99251.78
2023-01-08T13:44:52.923Z,99249.78
2023-01-08T13:49:55.247Z,99236.59
2023-01-08T13:54:56.932Z,99233.41
2023-01-08T13:59:59.260Z,99236.75
2023-01-08T14:05:02.212Z,99223.56
2023-01-08T14:10:09.598Z,99228.09
2023-01-08T14:15:28.087Z,99223.75
2023-01-08T14:20:33.399Z,99220.41
2023-01-08T14:25:35.002Z,99230.59
2023-01-08T14:30:37.508Z,99240.25
2023-01-08T14:35:40.194Z,99248.59
2023-01-08T14:40:45.593Z,99237.75
2023-01-08T14:45:49.844Z,99227.09
2023-01-08T14:51:01.504Z,99227.25
2023-01-08T14:56:04.812Z,99219.06
2023-01-08T15:01:09.555Z,99210.41
2023-01-08T15:06:11.610Z,99214.22
2023-01-08T15:11:19.222Z,99223.75
2023-01-08T15:16:31.279Z,99221.72
2023-01-08T15:21:33.947Z,99226.56
2023-01-08T15:26:41.535Z,99231.22
2023-01-08T15:31:43.080Z,99230.06
2023-01-08T15:36:46.482Z,99245.69
2023-01-08T15:42:06.792Z,99255.53
2023-01-08T15:47:08.417Z,99249.69
2023-01-08T15:52:10.059Z,99252.72
2023-01-08T15:57:12.119Z,99248.03
2023-01-08T16:02:15.316Z,99234.03
2023-01-08T16:07:17.004Z,99245.69
2023-01-08T16:12:18.603Z,99241.38
2023-01-08T16:17:20.243Z,99227.03
2023-01-08T16:22:22.012Z,99207.16
2023-01-08T16:27:23.891Z,99209.34
2023-01-08T16:32:25.468Z,99214.53
2023-01-08T16:37:27.061Z,99222.34
2023-01-08T16:42:28.661Z,99221.84
2023-01-08T16:47:30.273Z,99212.66
2023-01-08T16:52:31.866Z,99206.84
2023-01-08T16:57:33.513Z,99209.69
2023-01-08T17:02:35.207Z,99205.34
2023-01-08T17:07:36.808Z,99220.63
2023-01-08T17:12:38.359Z,99228.66
2023-01-08T17:17:39.951Z,99213.28
2023-01-08T17:22:41.559Z,99226.53
2023-01-08T17:27:43.233Z,99206.81
2023-01-08T17:32:44.864Z,99199.50
2023-01-08T17:37:46.937Z,99184.66
2023-01-08T17:42:48.721Z,99178.31
2023-01-08T17:47:50.305Z,99161.00
2023-01-08T17:52:51.906Z,99155.31
2023-01-08T17:57:53.499Z,99155.31
2023-01-08T18:02:55.138Z,99129.16
2023-01-08T18:07:56.858Z,99121.91
2023-01-08T18:12:58.478Z,99108.94
2023-01-08T18:18:01.006Z,99111.41
2023-01-08T18:23:02.670Z,99093.59
2023-01-08T18:28:04.290Z,99083.91
2023-01-08T18:33:06.996Z,99085.41
2023-01-08T18:38:15.884Z,99083.88
2023-01-08T18:43:17.581Z,99094.22
2023-01-08T18:48:19.153Z,99101.53
2023-01-08T18:53:20.943Z,99098.59
2023-01-08T18:58:22.550Z,99094.75
2023-01-08T19:03:24.176Z,99086.88
2023-01-08T19:08:25.927Z,99068.88
2023-01-08T19:13:27.575Z,99074.84
2023-01-08T19:18:29.211Z,99075.50
2023-01-08T19:23:30.786Z,99067.69
2023-01-08T19:28:32.481Z,99072.19
2023-01-08T19:33:34.103Z,99077.00
2023-01-08T19:38:35.703Z,99076.22
2023-01-08T19:43:42.921Z,99068.88
2023-01-08T19:48:45.509Z,99072.53
2023-01-08T19:53:47.184Z,99066.88
2023-01-08T19:58:48.985Z,99062.75
2023-01-08T20:03:50.633Z,99049.91
2023-01-08T20:08:54.394Z,99039.75
2023-01-08T20:14:00.236Z,99029.59
2023-01-08T20:19:04.353Z,99025.94
2023-01-08T20:24:11.335Z,99014.94
2023-01-08T20:29:14.391Z,99003.25
2023-01-08T20:34:16.258Z,98995.59
2023-01-08T20:39:18.369Z,98984.28
2023-01-08T20:44:19.992Z,98976.28
2023-01-08T20:49:21.637Z,98975.97
2023-01-08T20:54:23.191Z,98970.31
2023-01-08T20:59:24.907Z,98984.31
2023-01-08T21:04:26.661Z,98983.28
2023-01-08T21:09:28.457Z,98984.13
2023-01-08T21:14:30.077Z,98983.97
2023-01-08T21:19:31.811Z,98976.78
2023-01-08T21:24:33.423Z,98966.31
2023-01-08T21:29:35.035Z,98955.66
2023-01-08T21:34:36.790Z,98947.31
2023-01-08T21:39:38.386Z,98921.50
2023-01-08T21:44:58.521Z,98923.00
2023-01-08T21:50:00.225Z,98903.03
2023-01-08T21:55:02.325Z,98885.03
2023-01-08T22:00:04.691Z,98889.03
2023-01-08T22:05:06.936Z,98884.69
2023-01-08T22:10:09.386Z,98872.88
2023-01-08T22:15:11.518Z,98879.38
2023-01-08T22:20:13.534Z,98873.06
2023-01-08T22:25:15.235Z,98873.72
2023-01-08T22:30:17.609Z,98869.19
2023-01-08T22:35:19.210Z,98864.22
2023-01-08T22:40:20.827Z,98856.72
2023-01-08T22:45:22.473Z,98844.91
2023-01-08T22:50:24.034Z,98832.75
2023-01-08T22:55:25.620Z,98829.25
2023-01-08T23:00:27.221Z,98825.44
2023-01-08T23:05:28.773Z,98833.41
2023-01-08T23:10:30.504Z,98819.94
2023-01-08T23:15:32.083Z,98811.78
2023-01-08T23:20:33.649Z,98798.63
2023-01-08T23:25:35.239Z,98801.78
2023-01-08T23:30:40.453Z,98809.94
2023-01-08T23:35:42.648Z,98802.13
2023-01-08T23:40:45.376Z,98795.63
2023-01-08T23:45:46.980Z,98778.81
2023-01-08T23:50:48.559Z,98776.97
2023-01-08T23:55:50.249Z,98765.81
